sensor_id;sensor_type;location;lat;lon;timestamp;temperature;humidity
18898;DHT22;9581;49.484;8.556;2022-09-19T00:01:32;10.70;99.90
18898;DHT22;9581;49.484;8.556;2022-09-19T00:04:00;10.80;99.90
18898;DHT22;9581;49.484;8.556;2022-09-19T00:06:28;10.60;99.90
18898;DHT22;9581;49.484;8.556;2022-09-19T00:08:57;10.20;99.90
18898;DHT22;9581;49.484;8.556;2022-09-19T00:11:24;10.00;99.90
18898;DHT22;9581;49.484;8.556;2022-09-19T00:13:54;9.90;99.90
18898;DHT22;9581;49.484;8.556;2022-09-19T00:16:25;9.90;99.90
18898;DHT22;9581;49.484;8.556;2022-09-19T00:18:55;10.10;99.90
18898;DHT22;9581;49.484;8.556;2022-09-19T00:21:24;9.90;99.90
18898;DHT22;9581;49.484;8.556;2022-09-19T00:23:51;9.90;99.90
18898;DHT22;9581;49.484;8.556;2022-09-19T00:26:37;10.10;99.90
18898;DHT22;9581;49.484;8.556;2022-09-19T00:29:07;10.10;99.90
18898;DHT22;9581;49.484;8.556;2022-09-19T00:31:34;10.10;99.90
18898;DHT22;9581;49.484;8.556;2022-09-19T00:34:01;10.20;99.90
18898;DHT22;9581;49.484;8.556;2022-09-19T00:36:30;10.50;99.90
18898;DHT22;9581;49.484;8.556;2022-09-19T00:38:57;10.70;99.90
18898;DHT22;9581;49.484;8.556;2022-09-19T00:41:24;10.80;99.90
18898;DHT22;9581;49.484;8.556;2022-09-19T00:43:54;10.80;99.90
18898;DHT22;9581;49.484;8.556;2022-09-19T00:46:24;10.90;99.90
18898;DHT22;9581;49.484;8.556;2022-09-19T00:48:54;10.70;99.90
18898;DHT22;9581;49.484;8.556;2022-09-19T00:51:27;10.90;99.90
18898;DHT22;9581;49.484;8.556;2022-09-19T00:54:02;10.90;99.90
18898;DHT22;9581;49.484;8.556;2022-09-19T00:56:30;10.80;99.90
18898;DHT22;9581;49.484;8.556;2022-09-19T00:58:58;10.80;99.90
18898;DHT22;9581;49.484;8.556;2022-09-19T01:01:28;10.70;99.90
18898;DHT22;9581;49.484;8.556;2022-09-19T01:03:55;11.10;99.90
18898;DHT22;9581;49.484;8.556;2022-09-19T01:06:39;11.10;99.90
18898;DHT22;9581;49.484;8.556;2022-09-19T01:09:28;11.10;99.90
18898;DHT22;9581;49.484;8.556;2022-09-19T01:12:25;11.10;99.90
18898;DHT22;9581;49.484;8.556;2022-09-19T01:15:22;11.10;99.90
18898;DHT22;9581;49.484;8.556;2022-09-19T01:17:53;11.30;99.90
18898;DHT22;9581;49.484;8.556;2022-09-19T01:23:58;11.30;99.90
18898;DHT22;9581;49.484;8.556;2022-09-19T01:26:41;11.10;99.90
18898;DHT22;9581;49.484;8.556;2022-09-19T01:29:15;11.10;99.90
18898;DHT22;9581;49.484;8.556;2022-09-19T01:31:47;11.20;99.90
18898;DHT22;9581;49.484;8.556;2022-09-19T01:34:19;11.20;99.90
18898;DHT22;9581;49.484;8.556;2022-09-19T01:36:50;11.30;99.90
18898;DHT22;9581;49.484;8.556;2022-09-19T01:39:22;11.20;99.90
18898;DHT22;9581;49.484;8.556;2022-09-19T01:41:51;11.20;99.90
18898;DHT22;9581;49.484;8.556;2022-09-19T01:44:21;11.20;99.90
18898;DHT22;9581;49.484;8.556;2022-09-19T01:46:55;11.20;99.90
18898;DHT22;9581;49.484;8.556;2022-09-19T01:49:34;11.10;99.90
18898;DHT22;9581;49.484;8.556;2022-09-19T01:52:10;11.10;99.90
18898;DHT22;9581;49.484;8.556;2022-09-19T01:54:46;11.10;99.90
18898;DHT22;9581;49.484;8.556;2022-09-19T01:57:20;11.00;99.90
18898;DHT22;9581;49.484;8.556;2022-09-19T02:00:00;11.10;99.90
18898;DHT22;9581;49.484;8.556;2022-09-19T02:02:35;11.10;99.90
18898;DHT22;9581;49.484;8.556;2022-09-19T02:05:07;11.10;99.90
18898;DHT22;9581;49.484;8.556;2022-09-19T02:07:40;11.10;99.90
18898;DHT22;9581;49.484;8.556;2022-09-19T02:10:15;11.10;99.90
18898;DHT22;9581;49.484;8.556;2022-09-19T02:12:44;11.00;99.90
18898;DHT22;9581;49.484;8.556;2022-09-19T02:15:16;10.80;99.90
18898;DHT22;9581;49.484;8.556;2022-09-19T02:17:48;10.60;99.90
18898;DHT22;9581;49.484;8.556;2022-09-19T02:20:23;10.90;99.90
18898;DHT22;9581;49.484;8.556;2022-09-19T02:22:53;11.00;99.90
18898;DHT22;9581;49.484;8.556;2022-09-19T02:25:24;10.80;99.90
18898;DHT22;9581;49.484;8.556;2022-09-19T02:27:59;10.50;99.90
18898;DHT22;9581;49.484;8.556;2022-09-19T02:30:30;10.50;99.90
18898;DHT22;9581;49.484;8.556;2022-09-19T02:32:58;10.50;99.90
18898;DHT22;9581;49.484;8.556;2022-09-19T02:35:30;10.80;99.90
18898;DHT22;9581;49.484;8.556;2022-09-19T02:38:10;11.00;99.90
18898;DHT22;9581;49.484;8.556;2022-09-19T02:40:48;11.20;99.90
18898;DHT22;9581;49.484;8.556;2022-09-19T02:43:25;11.30;99.90
18898;DHT22;9581;49.484;8.556;2022-09-19T02:46:02;11.10;99.90
18898;DHT22;9581;49.484;8.556;2022-09-19T02:48:40;10.90;99.90
18898;DHT22;9581;49.484;8.556;2022-09-19T02:51:11;10.90;99.90
18898;DHT22;9581;49.484;8.556;2022-09-19T02:53:42;10.80;99.90
18898;DHT22;9581;49.484;8.556;2022-09-19T02:56:11;10.80;99.90
18898;DHT22;9581;49.484;8.556;2022-09-19T02:58:44;10.90;99.90
18898;DHT22;9581;49.484;8.556;2022-09-19T03:01:16;11.10;99.90
18898;DHT22;9581;49.484;8.556;2022-09-19T03:03:48;11.10;99.90
18898;DHT22;9581;49.484;8.556;2022-09-19T03:06:36;11.10;99.90
18898;DHT22;9581;49.484;8.556;2022-09-19T03:09:05;11.20;99.90
18898;DHT22;9581;49.484;8.556;2022-09-19T03:11:34;11.30;99.90
18898;DHT22;9581;49.484;8.556;2022-09-19T03:14:04;11.40;99.90
18898;DHT22;9581;49.484;8.556;2022-09-19T03:16:35;11.40;99.90
18898;DHT22;9581;49.484;8.556;2022-09-19T03:19:04;11.30;99.90
18898;DHT22;9581;49.484;8.556;2022-09-19T03:21:32;11.40;99.90
18898;DHT22;9581;49.484;8.556;2022-09-19T03:23:59;11.30;99.90
18898;DHT22;9581;49.484;8.556;2022-09-19T03:26:28;11.20;99.90
18898;DHT22;9581;49.484;8.556;2022-09-19T03:28:57;11.20;99.90
18898;DHT22;9581;49.484;8.556;2022-09-19T03:31:24;11.40;99.90
18898;DHT22;9581;49.484;8.556;2022-09-19T03:33:53;11.40;99.90
18898;DHT22;9581;49.484;8.556;2022-09-19T03:36:22;11.50;99.90
18898;DHT22;9581;49.484;8.556;2022-09-19T03:38:49;11.50;99.90
18898;DHT22;9581;49.484;8.556;2022-09-19T03:41:17;11.50;99.90
18898;DHT22;9581;49.484;8.556;2022-09-19T03:43:44;11.60;99.90
18898;DHT22;9581;49.484;8.556;2022-09-19T03:46:12;11.30;99.90
18898;DHT22;9581;49.484;8.556;2022-09-19T03:48:40;11.40;99.90
18898;DHT22;9581;49.484;8.556;2022-09-19T03:51:12;11.50;99.90
18898;DHT22;9581;49.484;8.556;2022-09-19T03:53:39;11.40;99.90
18898;DHT22;9581;49.484;8.556;2022-09-19T03:56:08;11.50;99.90
18898;DHT22;9581;49.484;8.556;2022-09-19T03:58:35;11.30;99.90
18898;DHT22;9581;49.484;8.556;2022-09-19T04:01:02;11.30;99.90
18898;DHT22;9581;49.484;8.556;2022-09-19T04:03:29;11.40;99.90
18898;DHT22;9581;49.484;8.556;2022-09-19T04:05:56;11.50;99.90
18898;DHT22;9581;49.484;8.556;2022-09-19T04:08:24;11.60;99.90
18898;DHT22;9581;49.484;8.556;2022-09-19T04:10:51;11.40;99.90
18898;DHT22;9581;49.484;8.556;2022-09-19T04:13:18;11.30;99.90
18898;DHT22;9581;49.484;8.556;2022-09-19T04:15:46;11.30;99.90
18898;DHT22;9581;49.484;8.556;2022-09-19T04:18:13;11.50;99.90
18898;DHT22;9581;49.484;8.556;2022-09-19T04:20:40;11.50;99.90
18898;DHT22;9581;49.484;8.556;2022-09-19T04:23:06;11.50;99.90
18898;DHT22;9581;49.484;8.556;2022-09-19T04:25:35;11.50;99.90
18898;DHT22;9581;49.484;8.556;2022-09-19T04:28:02;11.10;99.90
18898;DHT22;9581;49.484;8.556;2022-09-19T04:30:31;11.00;99.90
18898;DHT22;9581;49.484;8.556;2022-09-19T04:33:00;11.10;99.90
18898;DHT22;9581;49.484;8.556;2022-09-19T04:35:29;11.10;99.90
18898;DHT22;9581;49.484;8.556;2022-09-19T04:38:00;11.00;99.90
18898;DHT22;9581;49.484;8.556;2022-09-19T04:40:27;11.30;99.90
18898;DHT22;9581;49.484;8.556;2022-09-19T04:42:55;11.40;99.90
18898;DHT22;9581;49.484;8.556;2022-09-19T04:45:23;11.30;99.90
18898;DHT22;9581;49.484;8.556;2022-09-19T04:47:50;11.30;99.90
18898;DHT22;9581;49.484;8.556;2022-09-19T04:50:17;11.40;99.90
18898;DHT22;9581;49.484;8.556;2022-09-19T04:52:44;11.50;99.90
18898;DHT22;9581;49.484;8.556;2022-09-19T04:55:11;11.50;99.90
18898;DHT22;9581;49.484;8.556;2022-09-19T04:57:38;11.50;99.90
18898;DHT22;9581;49.484;8.556;2022-09-19T05:00:08;11.50;99.90
18898;DHT22;9581;49.484;8.556;2022-09-19T05:02:35;11.50;99.90
18898;DHT22;9581;49.484;8.556;2022-09-19T05:05:03;11.20;99.90
18898;DHT22;9581;49.484;8.556;2022-09-19T05:07:30;11.30;99.90
18898;DHT22;9581;49.484;8.556;2022-09-19T05:10:00;11.10;99.90
18898;DHT22;9581;49.484;8.556;2022-09-19T05:12:28;11.10;99.90
18898;DHT22;9581;49.484;8.556;2022-09-19T05:14:56;11.40;99.90
18898;DHT22;9581;49.484;8.556;2022-09-19T05:17:24;11.50;99.90
18898;DHT22;9581;49.484;8.556;2022-09-19T05:19:51;10.90;99.90
18898;DHT22;9581;49.484;8.556;2022-09-19T05:22:18;11.20;99.90
18898;DHT22;9581;49.484;8.556;2022-09-19T05:24:45;11.40;99.90
18898;DHT22;9581;49.484;8.556;2022-09-19T05:27:12;10.90;99.90
18898;DHT22;9581;49.484;8.556;2022-09-19T05:29:38;11.10;99.90
18898;DHT22;9581;49.484;8.556;2022-09-19T05:32:05;11.30;99.90
18898;DHT22;9581;49.484;8.556;2022-09-19T05:34:33;11.60;99.90
18898;DHT22;9581;49.484;8.556;2022-09-19T05:37:00;11.20;99.90
18898;DHT22;9581;49.484;8.556;2022-09-19T05:39:27;11.00;99.90
18898;DHT22;9581;49.484;8.556;2022-09-19T05:41:54;10.90;99.90
18898;DHT22;9581;49.484;8.556;2022-09-19T05:44:21;10.70;99.90
18898;DHT22;9581;49.484;8.556;2022-09-19T05:46:49;10.60;99.90
18898;DHT22;9581;49.484;8.556;2022-09-19T05:49:16;10.80;99.90
18898;DHT22;9581;49.484;8.556;2022-09-19T05:51:45;10.80;99.90
18898;DHT22;9581;49.484;8.556;2022-09-19T05:54:11;11.10;99.90
18898;DHT22;9581;49.484;8.556;2022-09-19T05:56:37;11.30;99.90
18898;DHT22;9581;49.484;8.556;2022-09-19T05:59:04;11.10;99.90
18898;DHT22;9581;49.484;8.556;2022-09-19T06:01:31;11.00;99.90
18898;DHT22;9581;49.484;8.556;2022-09-19T06:03:58;11.20;99.90
18898;DHT22;9581;49.484;8.556;2022-09-19T06:06:27;11.10;99.90
18898;DHT22;9581;49.484;8.556;2022-09-19T06:08:57;10.70;99.90
18898;DHT22;9581;49.484;8.556;2022-09-19T06:11:24;10.80;99.90
18898;DHT22;9581;49.484;8.556;2022-09-19T06:13:51;10.80;99.90
18898;DHT22;9581;49.484;8.556;2022-09-19T06:16:36;10.60;99.90
18898;DHT22;9581;49.484;8.556;2022-09-19T06:19:04;11.10;99.90
18898;DHT22;9581;49.484;8.556;2022-09-19T06:21:31;11.00;99.90
18898;DHT22;9581;49.484;8.556;2022-09-19T06:24:00;11.00;99.90
18898;DHT22;9581;49.484;8.556;2022-09-19T06:26:28;11.10;99.90
18898;DHT22;9581;49.484;8.556;2022-09-19T06:28:54;11.20;99.90
18898;DHT22;9581;49.484;8.556;2022-09-19T06:31:22;11.30;99.90
18898;DHT22;9581;49.484;8.556;2022-09-19T06:33:48;11.10;99.90
18898;DHT22;9581;49.484;8.556;2022-09-19T06:36:15;10.70;99.90
18898;DHT22;9581;49.484;8.556;2022-09-19T06:38:43;10.90;99.90
18898;DHT22;9581;49.484;8.556;2022-09-19T06:41:11;10.90;99.90
18898;DHT22;9581;49.484;8.556;2022-09-19T06:43:38;11.00;99.90
18898;DHT22;9581;49.484;8.556;2022-09-19T06:46:05;11.10;99.90
18898;DHT22;9581;49.484;8.556;2022-09-19T06:48:34;11.10;99.90
18898;DHT22;9581;49.484;8.556;2022-09-19T06:51:01;10.90;99.90
18898;DHT22;9581;49.484;8.556;2022-09-19T06:53:28;11.20;99.90
18898;DHT22;9581;49.484;8.556;2022-09-19T06:55:56;11.00;99.90
18898;DHT22;9581;49.484;8.556;2022-09-19T06:58:24;11.10;99.90
18898;DHT22;9581;49.484;8.556;2022-09-19T07:00:52;11.10;99.90
18898;DHT22;9581;49.484;8.556;2022-09-19T07:03:19;11.30;99.90
18898;DHT22;9581;49.484;8.556;2022-09-19T07:05:45;11.50;99.90
18898;DHT22;9581;49.484;8.556;2022-09-19T07:08:13;11.30;99.90
18898;DHT22;9581;49.484;8.556;2022-09-19T07:10:40;11.50;99.90
18898;DHT22;9581;49.484;8.556;2022-09-19T07:13:09;12.00;99.90
18898;DHT22;9581;49.484;8.556;2022-09-19T07:15:37;11.80;99.90
18898;DHT22;9581;49.484;8.556;2022-09-19T07:18:04;11.80;99.90
18898;DHT22;9581;49.484;8.556;2022-09-19T07:20:34;11.70;99.90
18898;DHT22;9581;49.484;8.556;2022-09-19T07:23:03;11.80;99.90
18898;DHT22;9581;49.484;8.556;2022-09-19T07:25:31;11.60;99.90
18898;DHT22;9581;49.484;8.556;2022-09-19T07:28:00;11.70;99.90
18898;DHT22;9581;49.484;8.556;2022-09-19T07:30:27;12.10;99.90
18898;DHT22;9581;49.484;8.556;2022-09-19T07:32:56;12.40;99.90
18898;DHT22;9581;49.484;8.556;2022-09-19T07:35:23;12.30;99.90
18898;DHT22;9581;49.484;8.556;2022-09-19T07:37:51;12.60;99.90
18898;DHT22;9581;49.484;8.556;2022-09-19T07:40:18;12.60;99.90
18898;DHT22;9581;49.484;8.556;2022-09-19T07:42:45;13.00;99.90
18898;DHT22;9581;49.484;8.556;2022-09-19T07:45:12;12.60;99.90
18898;DHT22;9581;49.484;8.556;2022-09-19T07:47:42;12.60;99.90
18898;DHT22;9581;49.484;8.556;2022-09-19T07:50:11;12.70;99.90
18898;DHT22;9581;49.484;8.556;2022-09-19T07:52:42;13.00;99.90
18898;DHT22;9581;49.484;8.556;2022-09-19T07:55:12;13.20;99.90
18898;DHT22;9581;49.484;8.556;2022-09-19T07:57:49;12.80;99.90
18898;DHT22;9581;49.484;8.556;2022-09-19T08:00:16;13.00;99.90
18898;DHT22;9581;49.484;8.556;2022-09-19T08:02:43;13.20;99.90
18898;DHT22;9581;49.484;8.556;2022-09-19T08:05:11;12.70;99.90
18898;DHT22;9581;49.484;8.556;2022-09-19T08:07:38;13.10;99.90
18898;DHT22;9581;49.484;8.556;2022-09-19T08:10:06;13.40;99.90
18898;DHT22;9581;49.484;8.556;2022-09-19T08:12:33;13.50;99.90
18898;DHT22;9581;49.484;8.556;2022-09-19T08:15:00;13.00;99.90
18898;DHT22;9581;49.484;8.556;2022-09-19T08:17:27;13.20;99.90
18898;DHT22;9581;49.484;8.556;2022-09-19T08:19:53;12.90;99.90
18898;DHT22;9581;49.484;8.556;2022-09-19T08:22:23;13.00;99.90
18898;DHT22;9581;49.484;8.556;2022-09-19T08:24:50;13.10;99.90
18898;DHT22;9581;49.484;8.556;2022-09-19T08:27:16;13.20;99.90
18898;DHT22;9581;49.484;8.556;2022-09-19T08:29:43;13.20;99.90
18898;DHT22;9581;49.484;8.556;2022-09-19T08:32:11;13.30;99.90
18898;DHT22;9581;49.484;8.556;2022-09-19T08:34:38;13.70;99.90
18898;DHT22;9581;49.484;8.556;2022-09-19T08:37:04;13.90;99.90
18898;DHT22;9581;49.484;8.556;2022-09-19T08:39:33;13.40;99.90
18898;DHT22;9581;49.484;8.556;2022-09-19T08:42:11;13.60;99.90
18898;DHT22;9581;49.484;8.556;2022-09-19T08:44:53;13.50;99.90
18898;DHT22;9581;49.484;8.556;2022-09-19T08:47:23;13.50;99.90
18898;DHT22;9581;49.484;8.556;2022-09-19T08:49:53;13.90;99.90
18898;DHT22;9581;49.484;8.556;2022-09-19T08:52:30;14.00;99.90
18898;DHT22;9581;49.484;8.556;2022-09-19T08:55:01;14.20;99.90
18898;DHT22;9581;49.484;8.556;2022-09-19T08:57:31;14.20;99.90
18898;DHT22;9581;49.484;8.556;2022-09-19T09:00:02;14.20;99.90
18898;DHT22;9581;49.484;8.556;2022-09-19T09:02:38;14.30;99.90
18898;DHT22;9581;49.484;8.556;2022-09-19T09:05:12;14.30;99.90
18898;DHT22;9581;49.484;8.556;2022-09-19T09:07:48;14.20;99.90
18898;DHT22;9581;49.484;8.556;2022-09-19T09:10:29;13.90;99.90
18898;DHT22;9581;49.484;8.556;2022-09-19T09:13:05;13.60;99.90
18898;DHT22;9581;49.484;8.556;2022-09-19T09:15:44;14.00;99.90
18898;DHT22;9581;49.484;8.556;2022-09-19T09:18:24;14.20;99.90
18898;DHT22;9581;49.484;8.556;2022-09-19T09:20:58;14.00;99.90
18898;DHT22;9581;49.484;8.556;2022-09-19T09:23:32;14.10;99.90
18898;DHT22;9581;49.484;8.556;2022-09-19T09:26:04;14.30;99.90
18898;DHT22;9581;49.484;8.556;2022-09-19T09:28:39;14.10;99.90
18898;DHT22;9581;49.484;8.556;2022-09-19T09:31:13;14.20;99.90
18898;DHT22;9581;49.484;8.556;2022-09-19T09:33:48;14.20;99.90
18898;DHT22;9581;49.484;8.556;2022-09-19T09:36:18;14.30;99.90
18898;DHT22;9581;49.484;8.556;2022-09-19T09:38:51;14.50;99.90
18898;DHT22;9581;49.484;8.556;2022-09-19T09:41:21;14.60;99.90
18898;DHT22;9581;49.484;8.556;2022-09-19T09:47:30;14.50;99.90
18898;DHT22;9581;49.484;8.556;2022-09-19T09:50:11;14.70;99.90
18898;DHT22;9581;49.484;8.556;2022-09-19T09:52:43;14.90;99.90
18898;DHT22;9581;49.484;8.556;2022-09-19T09:55:28;14.80;99.90
18898;DHT22;9581;49.484;8.556;2022-09-19T09:58:22;14.60;99.90
18898;DHT22;9581;49.484;8.556;2022-09-19T10:00:54;14.90;99.90
18898;DHT22;9581;49.484;8.556;2022-09-19T10:03:45;15.10;99.90
18898;DHT22;9581;49.484;8.556;2022-09-19T10:06:18;14.90;99.90
18898;DHT22;9581;49.484;8.556;2022-09-19T10:08:58;15.10;99.90
18898;DHT22;9581;49.484;8.556;2022-09-19T10:11:36;15.20;99.90
18898;DHT22;9581;49.484;8.556;2022-09-19T10:14:13;15.20;99.90
18898;DHT22;9581;49.484;8.556;2022-09-19T10:16:44;15.10;99.90
18898;DHT22;9581;49.484;8.556;2022-09-19T10:19:19;14.90;99.90
18898;DHT22;9581;49.484;8.556;2022-09-19T10:21:53;15.00;99.90
18898;DHT22;9581;49.484;8.556;2022-09-19T10:24:44;15.10;99.90
18898;DHT22;9581;49.484;8.556;2022-09-19T10:27:12;15.50;99.90
18898;DHT22;9581;49.484;8.556;2022-09-19T10:29:56;15.80;99.90
18898;DHT22;9581;49.484;8.556;2022-09-19T10:32:26;16.20;99.90
18898;DHT22;9581;49.484;8.556;2022-09-19T10:34:56;16.40;99.90
18898;DHT22;9581;49.484;8.556;2022-09-19T10:37:24;16.70;99.90
18898;DHT22;9581;49.484;8.556;2022-09-19T10:39:59;16.90;99.90
18898;DHT22;9581;49.484;8.556;2022-09-19T10:42:36;16.50;99.90
18898;DHT22;9581;49.484;8.556;2022-09-19T10:45:16;16.60;99.90
18898;DHT22;9581;49.484;8.556;2022-09-19T10:47:43;16.70;99.90
18898;DHT22;9581;49.484;8.556;2022-09-19T10:50:16;16.80;99.90
18898;DHT22;9581;49.484;8.556;2022-09-19T10:52:44;16.90;99.90
18898;DHT22;9581;49.484;8.556;2022-09-19T10:55:15;16.70;99.90
18898;DHT22;9581;49.484;8.556;2022-09-19T10:57:47;16.80;99.90
18898;DHT22;9581;49.484;8.556;2022-09-19T11:00:28;16.60;99.90
18898;DHT22;9581;49.484;8.556;2022-09-19T11:03:01;16.50;99.90
18898;DHT22;9581;49.484;8.556;2022-09-19T11:05:31;16.40;99.90
18898;DHT22;9581;49.484;8.556;2022-09-19T11:07:58;16.40;99.90
18898;DHT22;9581;49.484;8.556;2022-09-19T11:10:31;16.30;99.90
18898;DHT22;9581;49.484;8.556;2022-09-19T11:13:10;16.40;99.90
18898;DHT22;9581;49.484;8.556;2022-09-19T11:15:55;16.60;99.90
18898;DHT22;9581;49.484;8.556;2022-09-19T11:18:33;16.40;99.90
18898;DHT22;9581;49.484;8.556;2022-09-19T11:21:09;17.10;99.90
18898;DHT22;9581;49.484;8.556;2022-09-19T11:23:47;17.50;99.90
18898;DHT22;9581;49.484;8.556;2022-09-19T11:26:29;18.20;99.90
18898;DHT22;9581;49.484;8.556;2022-09-19T11:29:14;18.60;99.90
18898;DHT22;9581;49.484;8.556;2022-09-19T11:31:52;18.30;99.90
18898;DHT22;9581;49.484;8.556;2022-09-19T11:34:35;18.20;99.90
18898;DHT22;9581;49.484;8.556;2022-09-19T11:37:13;17.80;99.90
18898;DHT22;9581;49.484;8.556;2022-09-19T11:39:56;17.60;99.90
18898;DHT22;9581;49.484;8.556;2022-09-19T11:42:31;17.70;99.90
18898;DHT22;9581;49.484;8.556;2022-09-19T11:45:10;17.90;99.90
18898;DHT22;9581;49.484;8.556;2022-09-19T11:47:57;17.40;99.90
18898;DHT22;9581;49.484;8.556;2022-09-19T11:50:43;18.00;99.90
18898;DHT22;9581;49.484;8.556;2022-09-19T11:53:47;17.80;99.90
18898;DHT22;9581;49.484;8.556;2022-09-19T11:56:39;17.60;99.90
18898;DHT22;9581;49.484;8.556;2022-09-19T11:59:26;17.10;99.90
18898;DHT22;9581;49.484;8.556;2022-09-19T12:02:00;17.10;99.90
18898;DHT22;9581;49.484;8.556;2022-09-19T12:04:41;17.30;99.90
18898;DHT22;9581;49.484;8.556;2022-09-19T12:07:29;17.40;99.90
18898;DHT22;9581;49.484;8.556;2022-09-19T12:10:02;17.10;99.90
18898;DHT22;9581;49.484;8.556;2022-09-19T12:12:33;16.90;99.90
18898;DHT22;9581;49.484;8.556;2022-09-19T12:15:15;16.90;99.90
18898;DHT22;9581;49.484;8.556;2022-09-19T12:17:50;17.00;99.90
18898;DHT22;9581;49.484;8.556;2022-09-19T12:20:23;16.70;99.90
18898;DHT22;9581;49.484;8.556;2022-09-19T12:22:54;16.80;99.90
18898;DHT22;9581;49.484;8.556;2022-09-19T12:25:24;16.40;99.90
18898;DHT22;9581;49.484;8.556;2022-09-19T12:27:53;16.90;99.90
18898;DHT22;9581;49.484;8.556;2022-09-19T12:30:34;17.00;99.90
18898;DHT22;9581;49.484;8.556;2022-09-19T12:33:10;17.10;99.90
18898;DHT22;9581;49.484;8.556;2022-09-19T12:35:47;17.00;99.90
18898;DHT22;9581;49.484;8.556;2022-09-19T12:38:22;16.90;99.90
18898;DHT22;9581;49.484;8.556;2022-09-19T12:40:54;16.60;99.90
18898;DHT22;9581;49.484;8.556;2022-09-19T12:43:31;16.10;99.90
18898;DHT22;9581;49.484;8.556;2022-09-19T12:46:05;16.30;99.90
18898;DHT22;9581;49.484;8.556;2022-09-19T12:48:40;15.70;99.90
18898;DHT22;9581;49.484;8.556;2022-09-19T12:51:14;15.20;99.90
18898;DHT22;9581;49.484;8.556;2022-09-19T12:53:47;14.90;99.90
18898;DHT22;9581;49.484;8.556;2022-09-19T12:56:17;14.80;99.90
18898;DHT22;9581;49.484;8.556;2022-09-19T12:58:53;14.70;99.90
18898;DHT22;9581;49.484;8.556;2022-09-19T13:01:26;14.70;99.90
18898;DHT22;9581;49.484;8.556;2022-09-19T13:04:08;14.60;99.90
18898;DHT22;9581;49.484;8.556;2022-09-19T13:06:41;14.60;99.90
18898;DHT22;9581;49.484;8.556;2022-09-19T13:09:12;14.60;99.90
18898;DHT22;9581;49.484;8.556;2022-09-19T13:11:44;14.50;99.90
18898;DHT22;9581;49.484;8.556;2022-09-19T13:14:17;14.50;99.90
18898;DHT22;9581;49.484;8.556;2022-09-19T13:16:46;14.70;99.90
18898;DHT22;9581;49.484;8.556;2022-09-19T13:19:34;14.80;99.90
18898;DHT22;9581;49.484;8.556;2022-09-19T13:22:20;15.00;99.90
18898;DHT22;9581;49.484;8.556;2022-09-19T13:25:05;14.80;99.90
18898;DHT22;9581;49.484;8.556;2022-09-19T13:27:38;15.50;99.90
18898;DHT22;9581;49.484;8.556;2022-09-19T13:30:12;15.70;99.90
18898;DHT22;9581;49.484;8.556;2022-09-19T13:32:55;15.50;99.90
18898;DHT22;9581;49.484;8.556;2022-09-19T13:35:23;15.90;99.90
18898;DHT22;9581;49.484;8.556;2022-09-19T13:38:01;15.70;99.90
18898;DHT22;9581;49.484;8.556;2022-09-19T13:40:46;16.40;99.90
18898;DHT22;9581;49.484;8.556;2022-09-19T13:46:05;17.30;99.90
18898;DHT22;9581;49.484;8.556;2022-09-19T13:48:40;17.80;99.90
18898;DHT22;9581;49.484;8.556;2022-09-19T13:51:21;17.40;99.90
18898;DHT22;9581;49.484;8.556;2022-09-19T13:54:27;17.30;99.90
18898;DHT22;9581;49.484;8.556;2022-09-19T13:57:02;17.10;99.90
18898;DHT22;9581;49.484;8.556;2022-09-19T13:59:30;17.70;99.90
18898;DHT22;9581;49.484;8.556;2022-09-19T14:02:02;18.10;99.90
18898;DHT22;9581;49.484;8.556;2022-09-19T14:04:38;18.30;99.90
18898;DHT22;9581;49.484;8.556;2022-09-19T14:07:28;18.20;99.90
18898;DHT22;9581;49.484;8.556;2022-09-19T14:09:58;18.50;99.90
18898;DHT22;9581;49.484;8.556;2022-09-19T14:12:50;18.80;99.90
18898;DHT22;9581;49.484;8.556;2022-09-19T14:15:47;18.90;99.90
18898;DHT22;9581;49.484;8.556;2022-09-19T14:18:46;18.80;99.90
18898;DHT22;9581;49.484;8.556;2022-09-19T14:24:17;18.00;99.90
18898;DHT22;9581;49.484;8.556;2022-09-19T14:26:52;17.50;99.90
18898;DHT22;9581;49.484;8.556;2022-09-19T14:29:25;17.00;99.90
18898;DHT22;9581;49.484;8.556;2022-09-19T14:32:04;16.60;99.90
18898;DHT22;9581;49.484;8.556;2022-09-19T14:35:08;16.20;99.90
18898;DHT22;9581;49.484;8.556;2022-09-19T14:38:01;16.10;99.90
18898;DHT22;9581;49.484;8.556;2022-09-19T14:40:37;16.40;99.90
18898;DHT22;9581;49.484;8.556;2022-09-19T14:43:27;20.90;99.90
18898;DHT22;9581;49.484;8.556;2022-09-19T14:48:56;27.50;99.90
18898;DHT22;9581;49.484;8.556;2022-09-19T14:51:36;29.30;99.60
18898;DHT22;9581;49.484;8.556;2022-09-19T14:54:11;31.10;96.20
18898;DHT22;9581;49.484;8.556;2022-09-19T14:56:50;32.30;92.80
18898;DHT22;9581;49.484;8.556;2022-09-19T14:59:20;31.60;89.80
18898;DHT22;9581;49.484;8.556;2022-09-19T15:01:48;29.30;92.20
18898;DHT22;9581;49.484;8.556;2022-09-19T15:04:19;26.00;95.20
18898;DHT22;9581;49.484;8.556;2022-09-19T15:06:51;22.20;99.60
18898;DHT22;9581;49.484;8.556;2022-09-19T15:09:21;21.40;99.90
18898;DHT22;9581;49.484;8.556;2022-09-19T15:11:49;20.30;99.90
18898;DHT22;9581;49.484;8.556;2022-09-19T15:14:21;18.80;99.90
18898;DHT22;9581;49.484;8.556;2022-09-19T15:16:49;18.20;99.90
18898;DHT22;9581;49.484;8.556;2022-09-19T15:19:17;19.00;99.90
18898;DHT22;9581;49.484;8.556;2022-09-19T15:21:46;22.10;99.90
18898;DHT22;9581;49.484;8.556;2022-09-19T15:24:15;27.30;99.90
18898;DHT22;9581;49.484;8.556;2022-09-19T15:26:44;29.60;94.60
18898;DHT22;9581;49.484;8.556;2022-09-19T15:29:24;30.50;91.30
18898;DHT22;9581;49.484;8.556;2022-09-19T15:32:14;26.90;92.50
18898;DHT22;9581;49.484;8.556;2022-09-19T15:34:42;22.90;95.70
18898;DHT22;9581;49.484;8.556;2022-09-19T15:37:14;23.00;98.20
18898;DHT22;9581;49.484;8.556;2022-09-19T15:39:42;22.30;99.90
18898;DHT22;9581;49.484;8.556;2022-09-19T15:42:11;21.60;99.90
18898;DHT22;9581;49.484;8.556;2022-09-19T15:44:39;21.30;99.90
18898;DHT22;9581;49.484;8.556;2022-09-19T15:47:12;20.90;99.90
18898;DHT22;9581;49.484;8.556;2022-09-19T15:49:41;19.80;99.90
18898;DHT22;9581;49.484;8.556;2022-09-19T15:52:10;19.30;99.90
18898;DHT22;9581;49.484;8.556;2022-09-19T15:54:46;19.00;99.90
18898;DHT22;9581;49.484;8.556;2022-09-19T15:57:22;18.60;99.90
18898;DHT22;9581;49.484;8.556;2022-09-19T16:00:04;18.50;99.90
18898;DHT22;9581;49.484;8.556;2022-09-19T16:02:34;18.50;99.90
18898;DHT22;9581;49.484;8.556;2022-09-19T16:05:13;18.40;99.90
18898;DHT22;9581;49.484;8.556;2022-09-19T16:07:42;18.00;99.90
18898;DHT22;9581;49.484;8.556;2022-09-19T16:10:33;17.80;99.90
18898;DHT22;9581;49.484;8.556;2022-09-19T16:13:00;17.90;99.90
18898;DHT22;9581;49.484;8.556;2022-09-19T16:15:33;17.90;99.90
18898;DHT22;9581;49.484;8.556;2022-09-19T16:18:17;17.90;99.90
18898;DHT22;9581;49.484;8.556;2022-09-19T16:20:53;18.10;99.90
18898;DHT22;9581;49.484;8.556;2022-09-19T16:23:22;17.90;99.90
18898;DHT22;9581;49.484;8.556;2022-09-19T16:25:52;17.70;99.90
18898;DHT22;9581;49.484;8.556;2022-09-19T16:28:26;17.60;99.90
18898;DHT22;9581;49.484;8.556;2022-09-19T16:30:58;17.40;99.90
18898;DHT22;9581;49.484;8.556;2022-09-19T16:33:34;17.40;99.90
18898;DHT22;9581;49.484;8.556;2022-09-19T16:36:03;17.10;99.90
18898;DHT22;9581;49.484;8.556;2022-09-19T16:38:33;17.10;99.90